»·PEaware :: N7085R KSNA-KSBD

N7085R :: KSNA-KSBD

FLIGHT INFORMATION

Flight Status: Arrived
Operator: Privately registered:
United States
More flights under this callsign
Pilot: Patrick W. (20081)
Aircraft: BEECH AIRCRAFT BARON
(BE58)
More flights by this aircraft type
Origin: KSNA John Wayne-Orange Co
United States
Destination: KSBD San Bernardino Intl
United States
More flights between these airports :: More routes between these airports
Route: +SLI V8 PDZ
File this flight plan on PilotEdge
Remarks: CSTP13 || I-4 Rating
Altitude:
(Current/Filed)
5,000ft
Speed:
(Current/Filed)
195kts
Departed: 23-Aug-18 06:28 PM
Arrived: 23-Aug-18 06:53 PM
Distance/Time
Traveled:
40nm/0:25
Distance/Time
To Go:
Arrived

Flight Plot

Page will automatically refresh every two minutes.


Map Options




Map Legend


Flown Route
Filed Route
Departure Airport
Arrival Airport
Navaid (VOR, NDB)
Fix

Horizontal Profiles

Position Reports

Time Latitude Longitude Heading Altitude Ground
Speed
23-Aug-18 18:10 33.670756 -117.868122 215 57ft 0kts
23-Aug-18 18:11 33.670756 -117.868122 215 57ft 0kts
23-Aug-18 18:12 33.670756 -117.868122 215 57ft 0kts
23-Aug-18 18:13 33.670756 -117.868122 215 57ft 0kts
23-Aug-18 18:14 33.670756 -117.868122 215 57ft 0kts
23-Aug-18 18:15 33.670756 -117.868122 215 57ft 0kts
23-Aug-18 18:16 33.670756 -117.868122 215 57ft 0kts
23-Aug-18 18:17 33.670756 -117.868122 215 57ft 0kts
23-Aug-18 18:18 33.670756 -117.868122 215 57ft 0kts
23-Aug-18 18:19 33.670756 -117.868122 215 57ft 0kts
23-Aug-18 18:20 33.670756 -117.868122 215 57ft 0kts
23-Aug-18 18:21 33.670756 -117.868122 215 57ft 0kts
23-Aug-18 18:22 33.670722 -117.868298 301 57ft 2kts
23-Aug-18 18:23 33.670760 -117.868374 300 57ft 1kts
23-Aug-18 18:24 33.672434 -117.867897 28 57ft 10kts
23-Aug-18 18:25 33.674628 -117.866743 27 57ft 9kts
23-Aug-18 18:26 33.676865 -117.865346 26 57ft 14kts
23-Aug-18 18:27 33.679974 -117.863631 293 57ft 2kts
23-Aug-18 18:28 33.680059 -117.864209 208 57ft 1kts
23-Aug-18 18:29 33.662606 -117.878466 230 743ft 117kts
23-Aug-18 18:30 33.640102 -117.911194 231 1979ft 133kts
23-Aug-18 18:31 33.616236 -117.945792 231 2076ft 131kts
23-Aug-18 18:32 33.598915 -117.981296 288 3021ft 140kts
23-Aug-18 18:33 33.635115 -117.985219 11 4408ft 138kts
23-Aug-18 18:34 33.675346 -117.972881 11 5004ft 179kts
23-Aug-18 18:35 33.725182 -117.958121 11 4996ft 193kts
23-Aug-18 18:36 33.776920 -117.942900 11 4995ft 195kts
23-Aug-18 18:37 33.820825 -117.913274 68 4995ft 198kts
23-Aug-18 18:38 33.836431 -117.851287 73 4991ft 199kts
23-Aug-18 18:39 33.851555 -117.787955 73 4988ft 200kts
23-Aug-18 18:40 33.866654 -117.723439 73 4986ft 202kts
23-Aug-18 18:41 33.881833 -117.658230 72 4983ft 203kts
23-Aug-18 18:42 33.899314 -117.593243 69 4985ft 204kts
23-Aug-18 18:43 33.913571 -117.540578 70 4983ft 161kts
23-Aug-18 18:44 33.934308 -117.489282 56 4273ft 183kts
23-Aug-18 18:45 33.961148 -117.441087 52 3986ft 165kts
23-Aug-18 18:46 33.986538 -117.396085 54 3994ft 162kts
23-Aug-18 18:47 34.011638 -117.350419 54 3998ft 163kts
23-Aug-18 18:48 34.033028 -117.309962 63 3909ft 121kts
23-Aug-18 18:49 34.053198 -117.271042 33 2275ft 133kts
23-Aug-18 18:50 34.075816 -117.241094 65 2255ft 130kts
23-Aug-18 18:51 34.090660 -117.200858 64 2243ft 127kts
23-Aug-18 18:52 34.105587 -117.198003 257 1707ft 108kts
23-Aug-18 18:53 34.097779 -117.226676 253 1136ft 58kts
23-Aug-18 18:54 34.095480 -117.235589 283 1112ft 11kts
23-Aug-18 18:55 34.096315 -117.236379 323 1110ft 8kts
23-Aug-18 18:56 34.098800 -117.238583 263 1106ft 8kts
23-Aug-18 18:57 34.101499 -117.242312 158 1099ft 14kts
23-Aug-18 18:58 34.101324 -117.242557 61 1098ft 1kts
23-Aug-18 18:59 34.101335 -117.242529 65 1098ft 0kts
23-Aug-18 19:00 34.101335 -117.242529 65 1098ft 0kts

Navigation Log

Ident Type
Flight plan parsing failed, navigation log unavailable